Dallas, Texas
Traffic Map
Current Weather Conditions
Dallas, Texas
Clear
Clear
79°
Feels Like: 82°
Wind Chill: 79° Ceiling: Unl
Heat Index: 82° Visibility: 10mi
Dew Point: 69° Wind: 5mph
Humidity: 72% Direction: 120° (ESE)
Pressure: 30.08in Gusts: 0mph
Raw Report DataKDAL 230853Z 12004KT 10SM CLR 26/21 A3008 RMK AO2 SLP177 T02610206 53004
Traffic Incident Summary
Active as of:
Severity:
Category:
InformationThere was an issue retrieving the traffic information for this location. Please try a different location or try again shortly.
Advertisements
Track Severe Weather on mobile